Time;durP1;ratioP1;P1;durP2;ratioP2;P2;SDS_P1;SDS_P2;PMS_P1;PMS_P2;Temp;Humidity;BMP_temperature;BMP_pressure;BME280_temperature;BME280_humidity;BME280_pressure;Samples;Min_cycle;Max_cycle;Signal;HPM_P1;HPM_P2
2023/12/11 00:01:05;;;;;;;32.20;5.97;;;;;;;;;;5092905;28;20048;-73
2023/12/11 00:03:31;;;;;;;26.52;5.28;;;;;;;;;;5092609;28;20582;-74
2023/12/11 00:05:57;;;;;;;27.67;5.30;;;;;;;;;;5092674;28;20402;-73
2023/12/11 00:08:23;;;;;;;22.63;4.75;;;;;;;;;;5093206;28;20096;-73
2023/12/11 00:10:49;;;;;;;29.40;5.57;;;;;;;;;;5093598;28;20024;-73
2023/12/11 00:13:15;;;;;;;27.60;5.53;;;;;;;;;;5092834;28;20024;-73
2023/12/11 00:15:41;;;;;;;28.08;5.63;;;;;;;;;;5092560;28;20519;-72
2023/12/11 00:18:07;;;;;;;21.00;5.10;;;;;;;;;;5092250;28;20032;-72
2023/12/11 00:20:33;;;;;;;25.13;4.93;;;;;;;;;;5095145;28;20020;-74
2023/12/11 00:22:59;;;;;;;21.23;4.65;;;;;;;;;;5108703;28;20034;-74
2023/12/11 00:25:27;;;;;;;27.30;5.15;;;;;;;;;;5099799;28;20535;-74
2023/12/11 00:27:53;;;;;;;27.10;5.00;;;;;;;;;;5092422;28;20410;-74
2023/12/11 00:30:19;;;;;;;21.05;4.35;;;;;;;;;;5092236;28;20020;-74
2023/12/11 00:32:45;;;;;;;14.40;3.88;;;;;;;;;;5092104;28;20023;-73
2023/12/11 00:35:11;;;;;;;20.00;4.82;;;;;;;;;;5092251;28;20054;-73
2023/12/11 00:37:37;;;;;;;19.58;4.43;;;;;;;;;;5092166;28;20023;-73
2023/12/11 00:40:03;;;;;;;15.43;3.92;;;;;;;;;;5092053;28;20027;-73
2023/12/11 00:42:29;;;;;;;20.95;4.38;;;;;;;;;;5092008;28;20026;-73
2023/12/11 00:44:55;;;;;;;18.05;3.28;;;;;;;;;;5092199;28;20445;-74
2023/12/11 00:47:21;;;;;;;19.42;3.70;;;;;;;;;;5092079;28;20030;-74
2023/12/11 00:49:48;;;;;;;14.63;3.40;;;;;;;;;;5093107;28;20031;-74
2023/12/11 00:52:14;;;;;;;17.08;3.60;;;;;;;;;;5092041;28;20078;-74
2023/12/11 00:54:40;;;;;;;14.10;4.10;;;;;;;;;;5091733;28;20058;-74
2023/12/11 00:57:06;;;;;;;19.35;3.80;;;;;;;;;;5090705;28;20039;-74
2023/12/11 00:59:32;;;;;;;21.40;4.15;;;;;;;;;;5092413;28;20456;-74
2023/12/11 01:01:59;;;;;;;19.20;5.25;;;;;;;;;;5103909;28;20027;-74
2023/12/11 01:04:25;;;;;;;22.15;4.70;;;;;;;;;;5100951;28;20044;-73
2023/12/11 01:06:51;;;;;;;25.55;4.30;;;;;;;;;;5097818;28;20036;-74
2023/12/11 01:09:17;;;;;;;18.33;4.57;;;;;;;;;;5091972;28;20027;-73
2023/12/11 01:11:43;;;;;;;19.08;4.72;;;;;;;;;;5095454;28;20024;-73
2023/12/11 01:14:09;;;;;;;22.70;5.18;;;;;;;;;;5092947;28;20020;-73
2023/12/11 01:16:35;;;;;;;15.23;4.63;;;;;;;;;;5095327;28;20020;-74
2023/12/11 01:19:01;;;;;;;17.60;4.20;;;;;;;;;;5101187;28;20024;-74
2023/12/11 01:21:27;;;;;;;17.23;4.45;;;;;;;;;;5102157;28;20024;-74
2023/12/11 01:23:53;;;;;;;18.65;4.78;;;;;;;;;;5099828;28;20023;-74
2023/12/11 01:26:19;;;;;;;18.60;4.97;;;;;;;;;;5101108;28;20425;-73
2023/12/11 01:28:45;;;;;;;12.82;3.70;;;;;;;;;;5091159;28;20085;-72
2023/12/11 01:31:11;;;;;;;17.70;4.13;;;;;;;;;;5091717;28;20028;-73
2023/12/11 01:33:37;;;;;;;23.73;4.72;;;;;;;;;;5093361;28;20089;-73
2023/12/11 01:36:03;;;;;;;13.60;4.10;;;;;;;;;;5094781;28;20031;-73
2023/12/11 01:38:29;;;;;;;14.13;4.30;;;;;;;;;;5092311;28;20036;-73
2023/12/11 01:40:55;;;;;;;20.50;3.88;;;;;;;;;;5091410;28;20145;-73
2023/12/11 01:43:21;;;;;;;16.55;4.20;;;;;;;;;;5091218;28;20031;-73
2023/12/11 01:46:06;;;;;;;17.17;4.55;;;;;;;;;;5091364;28;20028;-74
2023/12/11 01:48:32;;;;;;;19.92;4.70;;;;;;;;;;5091246;28;20021;-74
2023/12/11 01:50:59;;;;;;;18.20;4.00;;;;;;;;;;5091509;28;20031;-74
2023/12/11 01:53:26;;;;;;;19.15;4.70;;;;;;;;;;5091350;28;20028;-74
2023/12/11 01:55:52;;;;;;;15.55;4.68;;;;;;;;;;5091343;28;20403;-73
2023/12/11 01:58:18;;;;;;;17.90;4.55;;;;;;;;;;5090875;28;20115;-74
2023/12/11 02:00:44;;;;;;;16.80;4.88;;;;;;;;;;5091194;28;20457;-74
2023/12/11 02:03:10;;;;;;;17.25;4.63;;;;;;;;;;5091149;28;20028;-74
2023/12/11 02:05:37;;;;;;;17.20;4.85;;;;;;;;;;5092497;28;20074;-73
2023/12/11 02:08:04;;;;;;;15.60;4.20;;;;;;;;;;5095317;28;20042;-73
2023/12/11 02:10:30;;;;;;;17.17;5.38;;;;;;;;;;5094908;28;20020;-72
2023/12/11 02:12:56;;;;;;;24.90;5.90;;;;;;;;;;5094801;28;20067;-74
2023/12/11 02:15:37;;;;;;;18.30;5.15;;;;;;;;;;5095046;28;20055;-74
2023/12/11 02:18:03;;;;;;;22.73;5.30;;;;;;;;;;5094779;28;20024;-73
2023/12/11 02:20:30;;;;;;;19.88;5.03;;;;;;;;;;5095536;28;20056;-73
2023/12/11 02:22:58;;;;;;;20.77;6.28;;;;;;;;;;5094355;28;20031;-73
2023/12/11 02:25:25;;;;;;;20.73;6.13;;;;;;;;;;5097763;28;20429;-73
2023/12/11 02:27:51;;;;;;;15.25;6.75;;;;;;;;;;5100856;28;20640;-73
2023/12/11 02:30:17;;;;;;;17.00;6.97;;;;;;;;;;5099996;28;20024;-73
2023/12/11 02:32:43;;;;;;;19.70;7.47;;;;;;;;;;5101269;28;20072;-72
2023/12/11 02:35:09;;;;;;;19.02;7.47;;;;;;;;;;5094626;28;20189;-74
2023/12/11 02:37:35;;;;;;;16.40;8.27;;;;;;;;;;5094519;28;20099;-73
2023/12/11 02:40:01;;;;;;;23.17;9.05;;;;;;;;;;5094302;28;20030;-73
2023/12/11 02:42:27;;;;;;;28.33;10.13;;;;;;;;;;5094364;28;20021;-73
2023/12/11 02:44:53;;;;;;;24.45;9.73;;;;;;;;;;5094567;28;20020;-74
2023/12/11 02:47:19;;;;;;;19.02;8.82;;;;;;;;;;5094590;28;20081;-74
2023/12/11 02:49:45;;;;;;;22.85;9.98;;;;;;;;;;5097169;28;20023;-74
2023/12/11 02:52:11;;;;;;;24.48;9.88;;;;;;;;;;5095274;28;20023;-73
2023/12/11 02:54:37;;;;;;;29.60;11.07;;;;;;;;;;5096540;28;20360;-73
2023/12/11 02:57:03;;;;;;;27.55;10.10;;;;;;;;;;5096161;28;20024;-74
2023/12/11 02:59:29;;;;;;;21.35;10.15;;;;;;;;;;5095090;28;20032;-73
2023/12/11 03:01:55;;;;;;;26.02;10.70;;;;;;;;;;5094860;28;20039;-73
2023/12/11 03:04:21;;;;;;;20.58;10.13;;;;;;;;;;5094123;28;20031;-73
2023/12/11 03:06:47;;;;;;;28.48;9.85;;;;;;;;;;5094127;28;20479;-73
2023/12/11 03:09:13;;;;;;;28.48;10.52;;;;;;;;;;5093710;28;20020;-73
2023/12/11 03:11:39;;;;;;;29.33;10.80;;;;;;;;;;5093755;28;20162;-73
2023/12/11 03:14:05;;;;;;;31.42;10.02;;;;;;;;;;5094204;28;20027;-73
2023/12/11 03:16:31;;;;;;;26.00;10.10;;;;;;;;;;5093560;28;20028;-73
2023/12/11 03:18:57;;;;;;;40.72;11.18;;;;;;;;;;5093336;28;20073;-73
2023/12/11 03:21:23;;;;;;;30.17;9.30;;;;;;;;;;5093566;28;20024;-73
2023/12/11 03:23:49;;;;;;;26.10;8.80;;;;;;;;;;5093563;28;20637;-74
2023/12/11 03:26:15;;;;;;;30.17;8.68;;;;;;;;;;5093639;28;20050;-73
2023/12/11 03:28:41;;;;;;;28.40;9.02;;;;;;;;;;5093260;28;20016;-73
2023/12/11 03:31:07;;;;;;;34.83;9.10;;;;;;;;;;5095312;28;20028;-73
2023/12/11 03:33:33;;;;;;;37.83;10.10;;;;;;;;;;5096731;28;20020;-73
2023/12/11 03:35:59;;;;;;;34.50;8.60;;;;;;;;;;5096050;28;20031;-74
2023/12/11 03:38:27;;;;;;;28.35;8.10;;;;;;;;;;5093725;28;20024;-73
2023/12/11 03:40:53;;;;;;;39.63;8.27;;;;;;;;;;5092705;28;20027;-76
2023/12/11 03:43:19;;;;;;;40.33;8.60;;;;;;;;;;5093219;28;20031;-74
2023/12/11 03:45:47;;;;;;;45.85;8.68;;;;;;;;;;5093137;28;20024;-75
2023/12/11 03:48:13;;;;;;;42.13;7.53;;;;;;;;;;5093012;28;20020;-74
2023/12/11 03:50:39;;;;;;;42.75;7.68;;;;;;;;;;5093094;28;20035;-73
2023/12/11 03:53:05;;;;;;;56.25;15.32;;;;;;;;;;5092933;28;20065;-74
2023/12/11 03:55:31;;;;;;;30.23;6.75;;;;;;;;;;5093032;28;20024;-74
2023/12/11 03:57:57;;;;;;;41.67;7.22;;;;;;;;;;5092635;28;20050;-74
2023/12/11 04:00:23;;;;;;;45.83;7.22;;;;;;;;;;5092451;28;20394;-73
2023/12/11 04:02:49;;;;;;;38.67;6.15;;;;;;;;;;5092680;28;20114;-75
2023/12/11 04:05:15;;;;;;;49.35;7.00;;;;;;;;;;5092669;28;20020;-74
2023/12/11 04:07:41;;;;;;;47.10;6.93;;;;;;;;;;5092654;28;20092;-74
2023/12/11 04:10:07;;;;;;;61.33;7.45;;;;;;;;;;5092756;28;20087;-73
2023/12/11 04:12:33;;;;;;;54.83;7.45;;;;;;;;;;5092541;28;20027;-73
2023/12/11 04:14:59;;;;;;;48.45;6.75;;;;;;;;;;5094558;28;20019;-72
2023/12/11 04:17:25;;;;;;;45.13;6.03;;;;;;;;;;5097772;28;20555;-73
2023/12/11 04:19:51;;;;;;;60.67;8.13;;;;;;;;;;5094600;28;20059;-73
2023/12/11 04:22:17;;;;;;;67.00;6.88;;;;;;;;;;5096618;28;20032;-76
2023/12/11 04:24:43;;;;;;;51.10;6.05;;;;;;;;;;5098745;28;20086;-73
2023/12/11 04:27:09;;;;;;;60.05;7.70;;;;;;;;;;5108157;28;20031;-73
2023/12/11 04:29:35;;;;;;;51.50;6.72;;;;;;;;;;5113402;28;20023;-73
2023/12/11 04:32:01;;;;;;;57.35;7.65;;;;;;;;;;5103044;28;20035;-73
2023/12/11 04:34:27;;;;;;;62.40;8.18;;;;;;;;;;5093521;28;20091;-73
2023/12/11 04:36:54;;;;;;;57.83;7.82;;;;;;;;;;5093160;28;20028;-73
2023/12/11 04:39:19;;;;;;;59.70;7.70;;;;;;;;;;5092406;28;20482;-73
2023/12/11 04:41:46;;;;;;;59.97;7.78;;;;;;;;;;5092170;28;20076;-72
2023/12/11 04:44:12;;;;;;;54.83;7.65;;;;;;;;;;5092426;28;20529;-72
2023/12/11 04:46:38;;;;;;;46.75;7.45;;;;;;;;;;5092170;28;20032;-72
2023/12/11 04:49:04;;;;;;;55.47;7.03;;;;;;;;;;5091848;28;20020;-74
2023/12/11 04:51:30;;;;;;;53.28;6.93;;;;;;;;;;5093000;28;20024;-73
2023/12/11 04:53:56;;;;;;;60.65;8.07;;;;;;;;;;5094268;28;20090;-72
2023/12/11 04:56:25;;;;;;;56.15;7.13;;;;;;;;;;5090823;28;20578;-73
2023/12/11 04:58:51;;;;;;;55.67;6.95;;;;;;;;;;5091384;28;20043;-72
2023/12/11 05:01:17;;;;;;;54.80;6.72;;;;;;;;;;5091704;28;20020;-75
2023/12/11 05:03:44;;;;;;;54.58;6.97;;;;;;;;;;5091766;28;20026;-74
2023/12/11 05:06:10;;;;;;;49.20;6.85;;;;;;;;;;5091833;28;20080;-73
2023/12/11 05:08:36;;;;;;;46.25;6.75;;;;;;;;;;5091553;28;20373;-71
2023/12/11 05:11:02;;;;;;;54.25;7.82;;;;;;;;;;5091847;28;20028;-74
2023/12/11 05:13:28;;;;;;;60.17;9.00;;;;;;;;;;5091936;28;20736;-73
2023/12/11 05:15:55;;;;;;;63.45;9.35;;;;;;;;;;5091699;28;20065;-72
2023/12/11 05:18:21;;;;;;;56.33;8.82;;;;;;;;;;5091514;28;20020;-72
2023/12/11 05:20:47;;;;;;;50.03;7.68;;;;;;;;;;5091535;28;20031;-75
2023/12/11 05:23:13;;;;;;;62.95;8.98;;;;;;;;;;5091618;28;20020;-73
2023/12/11 05:25:39;;;;;;;57.05;8.20;;;;;;;;;;5091618;28;20028;-72
2023/12/11 05:28:05;;;;;;;62.80;9.15;;;;;;;;;;5091226;28;20024;-71
2023/12/11 05:30:31;;;;;;;66.20;8.13;;;;;;;;;;5091350;28;20031;-73
2023/12/11 05:32:59;;;;;;;68.40;7.75;;;;;;;;;;5091343;28;20058;-75
2023/12/11 05:35:25;;;;;;;73.72;8.10;;;;;;;;;;5091600;28;20549;-72
2023/12/11 05:37:51;;;;;;;62.90;8.00;;;;;;;;;;5092728;28;20028;-72
2023/12/11 05:40:17;;;;;;;88.65;10.93;;;;;;;;;;5093374;28;20020;-73
2023/12/11 05:42:43;;;;;;;73.65;9.75;;;;;;;;;;5095002;28;20118;-74
2023/12/11 05:45:09;;;;;;;59.47;8.30;;;;;;;;;;5096460;28;20055;-73
2023/12/11 05:47:36;;;;;;;79.13;9.82;;;;;;;;;;5097353;28;20054;-75
2023/12/11 05:50:02;;;;;;;65.90;8.55;;;;;;;;;;5095420;28;20047;-74
2023/12/11 05:52:28;;;;;;;72.80;9.25;;;;;;;;;;5095758;28;20013;-72
2023/12/11 05:54:54;;;;;;;74.50;8.55;;;;;;;;;;5095273;28;20027;-74
2023/12/11 05:57:21;;;;;;;102.18;10.77;;;;;;;;;;5095209;28;20032;-74
2023/12/11 05:59:47;;;;;;;92.50;11.18;;;;;;;;;;5095021;28;20054;-72
2023/12/11 06:02:14;;;;;;;93.78;13.65;;;;;;;;;;5095043;28;20107;-72
2023/12/11 06:04:40;;;;;;;78.30;9.90;;;;;;;;;;5095098;28;20093;-74
2023/12/11 06:07:06;;;;;;;77.88;10.02;;;;;;;;;;5094803;28;20024;-73
2023/12/11 06:09:32;;;;;;;64.03;9.07;;;;;;;;;;5094446;28;20032;-74
2023/12/11 06:11:58;;;;;;;72.72;10.35;;;;;;;;;;5094699;28;20382;-73
2023/12/11 06:14:24;;;;;;;73.97;10.10;;;;;;;;;;5094976;28;20024;-73
2023/12/11 06:16:50;;;;;;;69.63;8.60;;;;;;;;;;5095061;28;20031;-72
2023/12/11 06:19:16;;;;;;;63.60;10.18;;;;;;;;;;5095759;28;20020;-74
2023/12/11 06:21:43;;;;;;;65.85;9.40;;;;;;;;;;5094934;28;20035;-74
2023/12/11 06:24:09;;;;;;;63.85;9.90;;;;;;;;;;5094827;28;20020;-74
2023/12/11 06:26:35;;;;;;;75.47;8.93;;;;;;;;;;5094891;28;20024;-73
2023/12/11 06:29:01;;;;;;;87.85;10.45;;;;;;;;;;5110079;28;20012;-73
2023/12/11 06:31:28;;;;;;;68.43;10.00;;;;;;;;;;5105551;28;20068;-73
2023/12/11 06:33:54;;;;;;;76.63;10.25;;;;;;;;;;5105429;28;20015;-73
2023/12/11 06:36:21;;;;;;;73.00;9.45;;;;;;;;;;5108638;28;20396;-73
2023/12/11 06:38:50;;;;;;;75.70;10.23;;;;;;;;;;5105548;28;20118;-74
2023/12/11 06:41:16;;;;;;;73.05;12.75;;;;;;;;;;5096560;28;20087;-72
2023/12/11 06:43:43;;;;;;;77.00;10.63;;;;;;;;;;5101406;28;20378;-73
2023/12/11 06:46:09;;;;;;;79.95;11.15;;;;;;;;;;5112476;28;20027;-71
2023/12/11 06:48:35;;;;;;;71.95;9.63;;;;;;;;;;5112379;28;20026;-75
2023/12/11 06:51:01;;;;;;;71.55;9.57;;;;;;;;;;5107907;28;20015;-74
2023/12/11 06:53:27;;;;;;;77.78;11.00;;;;;;;;;;5107487;28;20086;-74
2023/12/11 06:55:53;;;;;;;84.68;10.65;;;;;;;;;;5109833;28;20020;-73
2023/12/11 06:58:19;;;;;;;74.68;10.60;;;;;;;;;;5100192;28;20028;-74
2023/12/11 07:00:45;;;;;;;72.32;10.25;;;;;;;;;;5094666;28;20060;-72
2023/12/11 07:03:11;;;;;;;73.10;12.07;;;;;;;;;;5110570;28;20455;-73
2023/12/11 07:05:37;;;;;;;69.63;10.40;;;;;;;;;;5112509;28;20502;-74
2023/12/11 07:08:04;;;;;;;88.63;13.40;;;;;;;;;;5111595;28;20331;-78
2023/12/11 07:10:30;;;;;;;57.40;10.07;;;;;;;;;;5105668;28;20526;-72
2023/12/11 07:12:56;;;;;;;65.63;10.40;;;;;;;;;;5113732;28;20106;-73
2023/12/11 07:15:22;;;;;;;60.33;9.77;;;;;;;;;;5114293;28;20108;-71
2023/12/11 07:17:48;;;;;;;59.72;9.35;;;;;;;;;;5114025;28;20016;-71
2023/12/11 07:20:14;;;;;;;66.97;10.73;;;;;;;;;;5113821;28;20129;-75
2023/12/11 07:22:40;;;;;;;68.18;10.70;;;;;;;;;;5113856;28;20028;-74
2023/12/11 07:25:06;;;;;;;69.63;9.90;;;;;;;;;;5114047;28;20020;-74
2023/12/11 07:27:33;;;;;;;60.85;9.63;;;;;;;;;;5114080;28;20546;-73
2023/12/11 07:30:00;;;;;;;89.03;11.20;;;;;;;;;;5113906;28;20013;-72
2023/12/11 07:32:26;;;;;;;83.63;12.13;;;;;;;;;;5113986;28;20016;-72
2023/12/11 07:34:52;;;;;;;59.92;10.23;;;;;;;;;;5112312;28;20019;-72
2023/12/11 07:37:18;;;;;;;76.55;11.50;;;;;;;;;;5113761;28;20024;-72
2023/12/11 07:39:44;;;;;;;58.40;9.73;;;;;;;;;;5113643;28;20031;-73
2023/12/11 07:42:10;;;;;;;60.22;10.65;;;;;;;;;;5113782;28;20031;-75
2023/12/11 07:44:36;;;;;;;68.50;10.45;;;;;;;;;;5113734;28;20543;-68
2023/12/11 07:47:02;;;;;;;54.40;9.75;;;;;;;;;;5113613;28;20536;-71
2023/12/11 07:49:28;;;;;;;73.85;11.48;;;;;;;;;;5113487;28;20034;-74
2023/12/11 07:51:54;;;;;;;63.28;12.23;;;;;;;;;;5113255;28;20135;-72
2023/12/11 07:54:20;;;;;;;50.47;9.68;;;;;;;;;;5114782;28;20028;-72
2023/12/11 07:56:47;;;;;;;53.65;9.50;;;;;;;;;;5115213;28;20074;-70
2023/12/11 07:59:13;;;;;;;54.22;9.35;;;;;;;;;;5114298;28;20031;-74
2023/12/11 08:01:39;;;;;;;48.60;9.90;;;;;;;;;;5113922;28;20111;-72
2023/12/11 08:04:05;;;;;;;42.28;8.43;;;;;;;;;;5112953;28;20496;-73
2023/12/11 08:06:31;;;;;;;43.55;8.52;;;;;;;;;;5113332;28;20034;-72
2023/12/11 08:09:00;;;;;;;41.92;7.82;;;;;;;;;;5112704;28;20378;-70
2023/12/11 08:11:28;;;;;;;43.55;8.60;;;;;;;;;;5112975;28;20063;-72
2023/12/11 08:13:54;;;;;;;32.08;6.68;;;;;;;;;;5112685;28;20042;-71
2023/12/11 08:16:20;;;;;;;32.00;6.97;;;;;;;;;;5112837;28;20031;-70
2023/12/11 08:18:48;;;;;;;29.10;6.65;;;;;;;;;;5112635;28;20108;-70
2023/12/11 08:21:14;;;;;;;31.67;6.68;;;;;;;;;;5112698;28;20026;-71
2023/12/11 08:23:40;;;;;;;26.05;6.00;;;;;;;;;;5112154;28;20024;-70
2023/12/11 08:26:07;;;;;;;30.58;7.38;;;;;;;;;;5100813;28;20127;-70
2023/12/11 08:28:33;;;;;;;34.03;7.65;;;;;;;;;;5107207;28;20109;-70
2023/12/11 08:31:00;;;;;;;32.72;8.93;;;;;;;;;;5102534;28;20436;-71
2023/12/11 08:33:26;;;;;;;38.13;9.52;;;;;;;;;;5091683;28;20024;-70
2023/12/11 08:35:53;;;;;;;47.38;7.93;;;;;;;;;;5092410;28;20068;-71
2023/12/11 08:38:21;;;;;;;46.97;12.65;;;;;;;;;;5092554;28;20031;-71
2023/12/11 08:40:47;;;;;;;43.50;8.40;;;;;;;;;;5092137;28;20020;-71
2023/12/11 08:43:13;;;;;;;51.83;9.13;;;;;;;;;;5092275;28;20020;-71
2023/12/11 08:45:39;;;;;;;41.80;8.07;;;;;;;;;;5091883;28;20479;-71
2023/12/11 08:48:06;;;;;;;43.08;8.25;;;;;;;;;;5091773;28;20464;-72
2023/12/11 08:50:32;;;;;;;58.58;9.63;;;;;;;;;;5092424;28;20020;-71
2023/12/11 08:53:01;;;;;;;48.78;9.35;;;;;;;;;;5093343;28;20024;-71
2023/12/11 08:55:28;;;;;;;52.95;9.98;;;;;;;;;;5090909;28;20027;-71
2023/12/11 08:57:55;;;;;;;40.60;8.40;;;;;;;;;;5092155;28;20029;-71
2023/12/11 09:00:21;;;;;;;46.30;9.05;;;;;;;;;;5093098;28;20027;-71
2023/12/11 09:02:47;;;;;;;68.13;11.52;;;;;;;;;;5094285;28;20364;-72
2023/12/11 09:05:14;;;;;;;39.20;8.45;;;;;;;;;;5094277;28;20089;-72
2023/12/11 09:07:40;;;;;;;59.58;10.23;;;;;;;;;;5094840;28;20394;-71
2023/12/11 09:10:08;;;;;;;55.33;10.05;;;;;;;;;;5094674;28;20032;-70
2023/12/11 09:12:34;;;;;;;51.78;9.70;;;;;;;;;;5096154;28;20150;-72
2023/12/11 09:15:00;;;;;;;54.95;8.75;;;;;;;;;;5092554;28;20029;-69
2023/12/11 09:17:27;;;;;;;56.58;10.30;;;;;;;;;;5091455;28;20036;-71
2023/12/11 09:19:53;;;;;;;59.75;9.63;;;;;;;;;;5091174;28;20043;-70
2023/12/11 09:22:19;;;;;;;58.28;10.25;;;;;;;;;;5091207;28;20441;-72
2023/12/11 09:24:45;;;;;;;48.45;8.25;;;;;;;;;;5091775;28;20024;-71
2023/12/11 09:27:11;;;;;;;52.88;9.95;;;;;;;;;;5091374;28;20074;-70
2023/12/11 09:29:38;;;;;;;49.60;8.18;;;;;;;;;;5091277;28;20460;-70
2023/12/11 09:32:04;;;;;;;40.15;8.00;;;;;;;;;;5091424;28;20028;-70
2023/12/11 09:34:30;;;;;;;42.58;7.68;;;;;;;;;;5091968;28;20157;-70
2023/12/11 09:36:56;;;;;;;31.58;6.80;;;;;;;;;;5091582;28;20020;-71
2023/12/11 09:39:22;;;;;;;41.42;7.65;;;;;;;;;;5091025;28;20084;-71
2023/12/11 09:41:48;;;;;;;48.20;8.85;;;;;;;;;;5090898;28;20020;-70
2023/12/11 09:44:16;;;;;;;43.53;7.85;;;;;;;;;;5091362;28;20047;-71
2023/12/11 09:46:46;;;;;;;59.67;8.90;;;;;;;;;;5090052;28;20149;-71
2023/12/11 09:49:12;;;;;;;46.20;8.40;;;;;;;;;;5091965;28;20427;-70
2023/12/11 09:51:38;;;;;;;46.58;9.80;;;;;;;;;;5091623;28;20024;-71
2023/12/11 09:54:05;;;;;;;43.00;10.00;;;;;;;;;;5091004;28;20031;-72
2023/12/11 09:56:32;;;;;;;59.33;9.77;;;;;;;;;;5091953;28;20028;-71
2023/12/11 09:58:58;;;;;;;52.08;9.60;;;;;;;;;;5090831;28;20032;-70
2023/12/11 10:01:24;;;;;;;53.38;10.23;;;;;;;;;;5090857;28;20103;-70
2023/12/11 10:03:50;;;;;;;63.45;10.45;;;;;;;;;;5091543;28;20093;-70
2023/12/11 10:06:16;;;;;;;59.60;10.30;;;;;;;;;;5091522;28;20463;-71
2023/12/11 10:08:42;;;;;;;61.97;9.57;;;;;;;;;;5091472;28;20042;-71
2023/12/11 10:11:09;;;;;;;68.30;10.45;;;;;;;;;;5091094;28;20526;-72
2023/12/11 10:13:35;;;;;;;58.13;9.32;;;;;;;;;;5090912;28;20396;-70
2023/12/11 10:16:01;;;;;;;56.30;10.45;;;;;;;;;;5091097;28;20034;-71
2023/12/11 10:18:27;;;;;;;60.22;11.07;;;;;;;;;;5091380;28;20406;-72
2023/12/11 10:20:54;;;;;;;59.65;9.80;;;;;;;;;;5091168;28;20081;-71
2023/12/11 10:23:21;;;;;;;66.00;10.50;;;;;;;;;;5091222;28;20032;-69
2023/12/11 10:25:52;;;;;;;63.00;9.25;;;;;;;;;;5091413;28;20048;-71
2023/12/11 10:28:20;;;;;;;59.65;9.77;;;;;;;;;;5094319;28;20020;-72
2023/12/11 10:30:50;;;;;;;67.13;9.13;;;;;;;;;;5094831;28;20031;-71
2023/12/11 10:33:18;;;;;;;62.45;12.43;;;;;;;;;;5094956;28;20016;-72
2023/12/11 10:35:44;;;;;;;68.03;8.75;;;;;;;;;;5094392;28;20020;-70
2023/12/11 10:38:10;;;;;;;56.65;8.27;;;;;;;;;;5094464;28;20535;-71
2023/12/11 10:40:39;;;;;;;50.05;7.95;;;;;;;;;;5094229;28;20074;-71
2023/12/11 10:43:05;;;;;;;50.17;8.25;;;;;;;;;;5094441;28;20020;-73
2023/12/11 10:45:33;;;;;;;48.72;7.40;;;;;;;;;;5094394;28;20036;-73
2023/12/11 10:47:59;;;;;;;49.22;7.68;;;;;;;;;;5094682;28;20031;-73
2023/12/11 10:50:25;;;;;;;45.92;8.13;;;;;;;;;;5094111;28;20024;-75
2023/12/11 10:52:51;;;;;;;47.42;9.10;;;;;;;;;;5093813;28;20047;-72
2023/12/11 10:55:17;;;;;;;49.03;8.15;;;;;;;;;;5095157;28;20467;-71
2023/12/11 10:57:44;;;;;;;51.53;7.57;;;;;;;;;;5096338;28;20039;-71
2023/12/11 11:00:13;;;;;;;75.97;11.77;;;;;;;;;;5095098;28;20036;-73
2023/12/11 11:02:40;;;;;;;56.92;10.27;;;;;;;;;;5093855;28;20035;-72
2023/12/11 11:05:06;;;;;;;47.17;8.07;;;;;;;;;;5093972;28;20643;-72
2023/12/11 11:07:37;;;;;;;61.30;8.55;;;;;;;;;;5095242;28;20034;-80
2023/12/11 11:10:07;;;;;;;49.35;8.32;;;;;;;;;;5093740;28;20017;-75
2023/12/11 11:12:38;;;;;;;44.25;6.57;;;;;;;;;;5094500;28;20056;-71
2023/12/11 11:15:05;;;;;;;43.33;6.97;;;;;;;;;;5093780;28;20027;-72
2023/12/11 11:17:50;;;;;;;47.95;6.65;;;;;;;;;;5093812;28;20032;-71
2023/12/11 11:20:17;;;;;;;56.03;8.73;;;;;;;;;;5093413;28;20028;-73
2023/12/11 11:22:43;;;;;;;34.55;5.95;;;;;;;;;;5093194;28;20028;-72
2023/12/11 11:25:27;;;;;;;32.15;5.72;;;;;;;;;;5093562;28;20485;-71
2023/12/11 11:27:53;;;;;;;34.20;6.47;;;;;;;;;;5093474;28;20545;-70
2023/12/11 11:30:48;;;;;;;33.92;4.97;;;;;;;;;;5093418;28;20285;-74
2023/12/11 11:33:14;;;;;;;41.05;6.60;;;;;;;;;;5091542;28;20365;-72
2023/12/11 11:35:46;;;;;;;43.67;7.07;;;;;;;;;;5092884;28;20056;-71
2023/12/11 11:38:16;;;;;;;29.42;5.25;;;;;;;;;;5092245;28;20032;-71
2023/12/11 11:40:43;;;;;;;27.17;4.85;;;;;;;;;;5093150;28;20024;-72
2023/12/11 11:43:13;;;;;;;32.90;5.93;;;;;;;;;;5092988;28;20036;-73
2023/12/11 11:45:39;;;;;;;33.53;5.53;;;;;;;;;;5100870;28;20023;-71
2023/12/11 11:48:06;;;;;;;33.08;5.72;;;;;;;;;;5110808;28;20019;-72
2023/12/11 11:50:32;;;;;;;29.50;5.40;;;;;;;;;;5112675;28;20027;-72
2023/12/11 11:53:08;;;;;;;41.80;6.82;;;;;;;;;;5116167;28;20023;-71
2023/12/11 11:55:36;;;;;;;28.77;5.30;;;;;;;;;;5114560;27;20492;-72
2023/12/11 11:58:10;;;;;;;34.67;6.07;;;;;;;;;;5112206;28;20381;-73
2023/12/11 12:00:36;;;;;;;;;;;;;;;;;;5112622;28;20534;-72
2023/12/11 12:03:08;;;;;;;38.38;6.13;;;;;;;;;;5111935;28;19998;-72
2023/12/11 12:05:37;;;;;;;34.47;6.40;;;;;;;;;;5112139;28;20569;-71
2023/12/11 12:08:07;;;;;;;32.05;5.40;;;;;;;;;;5111981;28;20024;-71
2023/12/11 12:10:33;;;;;;;35.70;6.90;;;;;;;;;;5112069;28;20011;-71
2023/12/11 12:13:00;;;;;;;36.13;5.55;;;;;;;;;;5109845;28;20031;-71
2023/12/11 12:15:26;;;;;;;39.67;5.70;;;;;;;;;;5112401;28;20296;-72
2023/12/11 12:17:52;;;;;;;34.63;6.85;;;;;;;;;;5111706;28;20019;-71
2023/12/11 12:20:19;;;;;;;28.92;5.95;;;;;;;;;;5110937;28;20031;-74
2023/12/11 12:22:54;;;;;;;24.23;5.05;;;;;;;;;;5111447;28;20027;-72
2023/12/11 12:25:22;;;;;;;27.50;4.90;;;;;;;;;;5111414;28;20020;-73
2023/12/11 12:27:48;;;;;;;30.58;6.53;;;;;;;;;;5111167;28;20016;-72
2023/12/11 12:30:15;;;;;;;29.60;6.05;;;;;;;;;;5110590;28;20023;-70
2023/12/11 12:32:41;;;;;;;41.28;6.45;;;;;;;;;;5111112;28;20015;-72
2023/12/11 12:35:08;;;;;;;24.95;5.88;;;;;;;;;;5110980;28;20024;-71
2023/12/11 12:37:35;;;;;;;29.58;5.43;;;;;;;;;;5111399;28;20019;-71
2023/12/11 12:40:01;;;;;;;32.80;6.75;;;;;;;;;;5112017;28;20023;-71
2023/12/11 12:42:30;;;;;;;31.77;5.30;;;;;;;;;;5111732;28;20493;-71
2023/12/11 12:44:56;;;;;;;28.48;5.50;;;;;;;;;;5112497;28;20034;-70
2023/12/11 12:47:22;;;;;;;20.10;4.75;;;;;;;;;;5112274;28;20201;-70
2023/12/11 12:49:48;;;;;;;23.92;5.10;;;;;;;;;;5112152;28;20063;-70
2023/12/11 12:52:24;;;;;;;19.52;4.30;;;;;;;;;;5112840;28;20106;-73
2023/12/11 12:54:50;;;;;;;23.42;5.43;;;;;;;;;;5112904;28;20367;-71
2023/12/11 12:57:17;;;;;;;17.70;5.47;;;;;;;;;;5112130;28;20028;-72
2023/12/11 12:59:43;;;;;;;21.48;5.30;;;;;;;;;;5111779;28;20574;-72
2023/12/11 13:02:14;;;;;;;18.30;5.53;;;;;;;;;;5112232;28;20383;-71
2023/12/11 13:04:53;;;;;;;19.00;5.47;;;;;;;;;;5116560;28;20024;-72
2023/12/11 13:07:21;;;;;;;27.63;7.35;;;;;;;;;;5112803;28;20424;-72
2023/12/11 13:09:47;;;;;;;30.40;6.90;;;;;;;;;;5111635;28;20363;-72
2023/12/11 13:12:16;;;;;;;27.10;6.88;;;;;;;;;;5112548;28;20424;-72
2023/12/11 13:14:42;;;;;;;28.25;6.20;;;;;;;;;;5111551;28;20019;-71
2023/12/11 13:17:08;;;;;;;27.38;6.28;;;;;;;;;;5111982;28;20450;-70
2023/12/11 13:19:34;;;;;;;22.65;6.53;;;;;;;;;;5111998;28;20024;-72
2023/12/11 13:22:00;;;;;;;24.95;6.18;;;;;;;;;;5111870;28;20031;-69
2023/12/11 13:24:26;;;;;;;26.10;6.75;;;;;;;;;;5111724;28;20028;-71
2023/12/11 13:26:52;;;;;;;21.60;6.00;;;;;;;;;;5111951;28;20108;-71
2023/12/11 13:29:18;;;;;;;20.05;5.80;;;;;;;;;;5113361;28;20015;-72
2023/12/11 13:31:45;;;;;;;26.30;6.65;;;;;;;;;;5110856;28;20459;-72
2023/12/11 13:34:11;;;;;;;26.30;6.90;;;;;;;;;;5091350;28;20024;-71
2023/12/11 13:36:37;;;;;;;27.40;7.15;;;;;;;;;;5091423;28;20382;-72
2023/12/11 13:39:05;;;;;;;26.60;6.90;;;;;;;;;;5090897;28;20085;-70
2023/12/11 13:41:35;;;;;;;26.17;6.72;;;;;;;;;;5090604;28;20169;-71
2023/12/11 13:44:01;;;;;;;20.83;5.95;;;;;;;;;;5090522;28;20093;-72
2023/12/11 13:46:27;;;;;;;26.55;8.38;;;;;;;;;;5091826;28;20478;-72
2023/12/11 13:48:53;;;;;;;23.02;5.95;;;;;;;;;;5092237;28;20020;-71
2023/12/11 13:51:20;;;;;;;22.33;5.55;;;;;;;;;;5091156;28;20069;-70
2023/12/11 13:53:46;;;;;;;23.73;6.20;;;;;;;;;;5091782;28;20077;-72
2023/12/11 13:56:12;;;;;;;25.00;5.90;;;;;;;;;;5091563;28;20070;-71
2023/12/11 13:58:38;;;;;;;21.52;5.50;;;;;;;;;;5090515;28;20028;-71
2023/12/11 14:01:04;;;;;;;19.10;5.40;;;;;;;;;;5091664;28;20070;-70
2023/12/11 14:03:30;;;;;;;27.65;7.32;;;;;;;;;;5095799;28;20049;-71
2023/12/11 14:05:56;;;;;;;18.48;6.03;;;;;;;;;;5095968;28;20106;-70
2023/12/11 14:08:22;;;;;;;11.93;3.90;;;;;;;;;;5094645;28;20050;-71
2023/12/11 14:10:48;;;;;;;8.60;2.50;;;;;;;;;;5095087;28;20062;-72
2023/12/11 14:13:14;;;;;;;8.68;2.47;;;;;;;;;;5094754;28;20028;-71
2023/12/11 14:15:41;;;;;;;8.70;2.17;;;;;;;;;;5095455;28;20752;-71
2023/12/11 14:18:07;;;;;;;13.75;4.28;;;;;;;;;;5096120;28;20103;-72
2023/12/11 14:20:33;;;;;;;6.78;2.90;;;;;;;;;;5096344;28;20043;-70
2023/12/11 14:22:59;;;;;;;7.20;2.72;;;;;;;;;;5095185;28;20020;-71
2023/12/11 14:25:26;;;;;;;21.30;8.13;;;;;;;;;;5094786;28;20024;-72